sensor_id;sensor_type;location;lat;lon;timestamp;pressure;altitude;pressure_sealevel;temperature;humidity
34506;BME280;20748;42.632;23.198;2022-07-19T00:02:23;92710.59;;;17.35;62.28
34506;BME280;20748;42.632;23.198;2022-07-19T00:04:55;92705.38;;;17.26;62.50
34506;BME280;20748;42.632;23.198;2022-07-19T00:07:28;92703.69;;;17.22;63.32
34506;BME280;20748;42.632;23.198;2022-07-19T00:10:01;92709.22;;;17.08;64.84
34506;BME280;20748;42.632;23.198;2022-07-19T00:12:35;92700.72;;;17.02;64.88
34506;BME280;20748;42.632;23.198;2022-07-19T00:15:09;92701.56;;;16.94;65.54
34506;BME280;20748;42.632;23.198;2022-07-19T00:17:43;92705.78;;;16.86;65.52
34506;BME280;20748;42.632;23.198;2022-07-19T00:20:19;92707.75;;;16.68;66.18
34506;BME280;20748;42.632;23.198;2022-07-19T00:22:52;92706.91;;;16.55;67.42
34506;BME280;20748;42.632;23.198;2022-07-19T00:25:24;92703.97;;;16.47;68.20
34506;BME280;20748;42.632;23.198;2022-07-19T00:27:57;92699.34;;;16.44;68.19
34506;BME280;20748;42.632;23.198;2022-07-19T00:30:29;92703.69;;;16.40;68.31
34506;BME280;20748;42.632;23.198;2022-07-19T00:33:02;92699.53;;;16.39;68.38
34506;BME280;20748;42.632;23.198;2022-07-19T00:35:36;92701.84;;;16.41;68.74
34506;BME280;20748;42.632;23.198;2022-07-19T00:38:10;92698.91;;;16.33;69.10
34506;BME280;20748;42.632;23.198;2022-07-19T00:40:43;92696.94;;;16.30;69.42
34506;BME280;20748;42.632;23.198;2022-07-19T00:43:16;92691.97;;;16.29;69.66
34506;BME280;20748;42.632;23.198;2022-07-19T00:45:48;92700.78;;;16.33;69.55
34506;BME280;20748;42.632;23.198;2022-07-19T00:48:21;92702.53;;;16.20;69.31
34506;BME280;20748;42.632;23.198;2022-07-19T00:50:54;92696.38;;;16.07;69.95
34506;BME280;20748;42.632;23.198;2022-07-19T00:53:26;92695.00;;;15.92;70.70
34506;BME280;20748;42.632;23.198;2022-07-19T00:55:59;92695.34;;;15.81;71.07
34506;BME280;20748;42.632;23.198;2022-07-19T00:58:34;92689.75;;;15.83;71.15
34506;BME280;20748;42.632;23.198;2022-07-19T01:01:08;92696.88;;;15.82;71.46
34506;BME280;20748;42.632;23.198;2022-07-19T01:03:41;92698.63;;;15.69;71.54
34506;BME280;20748;42.632;23.198;2022-07-19T01:06:14;92694.88;;;15.70;71.44
34506;BME280;20748;42.632;23.198;2022-07-19T01:08:46;92694.44;;;15.68;71.72
34506;BME280;20748;42.632;23.198;2022-07-19T01:11:19;92694.13;;;15.70;71.57
34506;BME280;20748;42.632;23.198;2022-07-19T01:13:52;92692.28;;;15.62;72.00
34506;BME280;20748;42.632;23.198;2022-07-19T01:16:25;92691.06;;;15.41;72.78
34506;BME280;20748;42.632;23.198;2022-07-19T01:18:57;92687.81;;;15.44;72.59
34506;BME280;20748;42.632;23.198;2022-07-19T01:21:30;92686.44;;;15.38;72.85
34506;BME280;20748;42.632;23.198;2022-07-19T01:24:04;92691.56;;;15.35;72.93
34506;BME280;20748;42.632;23.198;2022-07-19T01:26:36;92689.69;;;15.26;73.08
34506;BME280;20748;42.632;23.198;2022-07-19T01:29:14;92684.91;;;15.28;73.18
34506;BME280;20748;42.632;23.198;2022-07-19T01:31:46;92685.66;;;15.29;73.50
34506;BME280;20748;42.632;23.198;2022-07-19T01:34:19;92683.81;;;15.12;74.04
34506;BME280;20748;42.632;23.198;2022-07-19T01:36:52;92688.44;;;15.15;73.51
34506;BME280;20748;42.632;23.198;2022-07-19T01:39:24;92687.19;;;15.12;74.03
34506;BME280;20748;42.632;23.198;2022-07-19T01:41:57;92685.66;;;15.02;74.35
34506;BME280;20748;42.632;23.198;2022-07-19T01:44:29;92687.97;;;15.04;74.48
34506;BME280;20748;42.632;23.198;2022-07-19T01:47:01;92688.28;;;14.94;74.91
34506;BME280;20748;42.632;23.198;2022-07-19T01:49:34;92691.53;;;14.99;75.08
34506;BME280;20748;42.632;23.198;2022-07-19T01:52:07;92689.03;;;14.76;75.73
34506;BME280;20748;42.632;23.198;2022-07-19T01:54:40;92675.72;;;14.73;75.70
34506;BME280;20748;42.632;23.198;2022-07-19T01:57:12;92679.44;;;14.72;75.82
34506;BME280;20748;42.632;23.198;2022-07-19T01:59:44;92684.97;;;14.61;76.14
34506;BME280;20748;42.632;23.198;2022-07-19T02:02:17;92687.44;;;14.58;76.66
34506;BME280;20748;42.632;23.198;2022-07-19T02:04:49;92688.31;;;14.44;77.30
34506;BME280;20748;42.632;23.198;2022-07-19T02:07:23;92692.16;;;14.38;77.67
34506;BME280;20748;42.632;23.198;2022-07-19T02:09:56;92690.16;;;14.35;77.71
34506;BME280;20748;42.632;23.198;2022-07-19T02:12:29;92693.88;;;14.43;77.42
34506;BME280;20748;42.632;23.198;2022-07-19T02:15:03;92692.50;;;14.45;76.99
34506;BME280;20748;42.632;23.198;2022-07-19T02:17:36;92700.19;;;14.42;77.55
34506;BME280;20748;42.632;23.198;2022-07-19T02:20:10;92689.72;;;14.50;77.45
34506;BME280;20748;42.632;23.198;2022-07-19T02:22:45;92710.09;;;14.45;77.27
34506;BME280;20748;42.632;23.198;2022-07-19T02:25:18;92701.63;;;14.48;77.32
34506;BME280;20748;42.632;23.198;2022-07-19T02:27:50;92701.91;;;14.38;77.57
34506;BME280;20748;42.632;23.198;2022-07-19T02:30:23;92699.88;;;14.34;77.96
34506;BME280;20748;42.632;23.198;2022-07-19T02:32:55;92704.34;;;14.34;78.34
34506;BME280;20748;42.632;23.198;2022-07-19T02:35:31;92702.28;;;14.22;78.46
34506;BME280;20748;42.632;23.198;2022-07-19T02:38:04;92708.63;;;14.21;78.79
34506;BME280;20748;42.632;23.198;2022-07-19T02:40:37;92705.69;;;14.22;78.78
34506;BME280;20748;42.632;23.198;2022-07-19T02:43:09;92711.13;;;14.26;78.36
34506;BME280;20748;42.632;23.198;2022-07-19T02:45:42;92707.53;;;14.22;79.11
34506;BME280;20748;42.632;23.198;2022-07-19T02:48:14;92715.41;;;14.22;79.01
34506;BME280;20748;42.632;23.198;2022-07-19T02:50:47;92707.53;;;14.22;79.26
34506;BME280;20748;42.632;23.198;2022-07-19T02:53:20;92716.06;;;14.28;79.10
34506;BME280;20748;42.632;23.198;2022-07-19T02:55:53;92714.34;;;14.23;79.22
34506;BME280;20748;42.632;23.198;2022-07-19T02:58:25;92717.03;;;14.09;79.60
34506;BME280;20748;42.632;23.198;2022-07-19T03:00:57;92723.38;;;14.08;79.95
34506;BME280;20748;42.632;23.198;2022-07-19T03:03:30;92728.94;;;14.06;79.87
34506;BME280;20748;42.632;23.198;2022-07-19T03:06:19;92717.97;;;14.04;80.31
34506;BME280;20748;42.632;23.198;2022-07-19T03:08:52;92718.03;;;13.90;80.80
34506;BME280;20748;42.632;23.198;2022-07-19T03:11:24;92720.38;;;13.92;80.57
34506;BME280;20748;42.632;23.198;2022-07-19T03:13:58;92723.00;;;13.92;80.18
34506;BME280;20748;42.632;23.198;2022-07-19T03:16:30;92716.66;;;13.93;81.00
34506;BME280;20748;42.632;23.198;2022-07-19T03:19:03;92721.50;;;14.00;81.00
34506;BME280;20748;42.632;23.198;2022-07-19T03:21:36;92725.16;;;13.90;81.49
34506;BME280;20748;42.632;23.198;2022-07-19T03:24:09;92722.91;;;13.74;81.58
34506;BME280;20748;42.632;23.198;2022-07-19T03:26:42;92719.47;;;13.74;81.77
34506;BME280;20748;42.632;23.198;2022-07-19T03:29:17;92730.06;;;13.60;82.83
34506;BME280;20748;42.632;23.198;2022-07-19T03:31:50;92730.88;;;13.69;81.96
34506;BME280;20748;42.632;23.198;2022-07-19T03:34:22;92735.41;;;13.77;82.04
34506;BME280;20748;42.632;23.198;2022-07-19T03:36:55;92734.69;;;13.63;82.94
34506;BME280;20748;42.632;23.198;2022-07-19T03:39:28;92730.25;;;13.63;82.69
34506;BME280;20748;42.632;23.198;2022-07-19T03:42:00;92735.38;;;13.68;82.32
34506;BME280;20748;42.632;23.198;2022-07-19T03:44:33;92732.06;;;13.63;82.74
34506;BME280;20748;42.632;23.198;2022-07-19T03:47:06;92739.47;;;13.61;83.03
34506;BME280;20748;42.632;23.198;2022-07-19T03:49:38;92734.97;;;13.61;82.83
34506;BME280;20748;42.632;23.198;2022-07-19T03:52:11;92733.03;;;13.67;83.20
34506;BME280;20748;42.632;23.198;2022-07-19T03:54:50;92744.09;;;13.64;83.39
34506;BME280;20748;42.632;23.198;2022-07-19T03:57:23;92746.84;;;13.59;82.97
34506;BME280;20748;42.632;23.198;2022-07-19T03:59:55;92746.44;;;13.65;82.88
34506;BME280;20748;42.632;23.198;2022-07-19T04:02:27;92750.03;;;13.69;83.45
34506;BME280;20748;42.632;23.198;2022-07-19T04:05:00;92754.19;;;13.71;83.72
34506;BME280;20748;42.632;23.198;2022-07-19T04:07:32;92748.47;;;13.68;84.04
34506;BME280;20748;42.632;23.198;2022-07-19T04:10:07;92759.91;;;13.73;84.51
34506;BME280;20748;42.632;23.198;2022-07-19T04:12:39;92757.59;;;13.71;84.96
34506;BME280;20748;42.632;23.198;2022-07-19T04:15:12;92766.22;;;13.72;85.69
34506;BME280;20748;42.632;23.198;2022-07-19T04:17:45;92748.66;;;13.72;85.31
34506;BME280;20748;42.632;23.198;2022-07-19T04:20:17;92757.81;;;13.83;85.65
34506;BME280;20748;42.632;23.198;2022-07-19T04:22:49;92762.22;;;13.97;85.43
34506;BME280;20748;42.632;23.198;2022-07-19T04:25:23;92759.19;;;14.04;85.32
34506;BME280;20748;42.632;23.198;2022-07-19T04:27:55;92762.44;;;14.09;86.17
34506;BME280;20748;42.632;23.198;2022-07-19T04:30:28;92751.81;;;14.15;85.97
34506;BME280;20748;42.632;23.198;2022-07-19T04:33:00;92753.81;;;14.18;86.84
34506;BME280;20748;42.632;23.198;2022-07-19T04:35:33;92757.69;;;14.20;86.79
34506;BME280;20748;42.632;23.198;2022-07-19T04:38:05;92756.97;;;14.29;86.86
34506;BME280;20748;42.632;23.198;2022-07-19T04:40:38;92760.38;;;14.29;87.54
34506;BME280;20748;42.632;23.198;2022-07-19T04:43:11;92759.47;;;14.34;87.45
34506;BME280;20748;42.632;23.198;2022-07-19T04:45:43;92754.06;;;14.30;87.35
34506;BME280;20748;42.632;23.198;2022-07-19T04:48:16;92765.06;;;14.41;86.56
34506;BME280;20748;42.632;23.198;2022-07-19T04:50:48;92756.31;;;14.55;85.30
34506;BME280;20748;42.632;23.198;2022-07-19T04:53:21;92765.59;;;14.61;85.50
34506;BME280;20748;42.632;23.198;2022-07-19T04:55:54;92764.22;;;14.72;86.28
34506;BME280;20748;42.632;23.198;2022-07-19T04:58:26;92762.88;;;14.75;88.29
34506;BME280;20748;42.632;23.198;2022-07-19T05:00:59;92773.41;;;14.84;86.86
34506;BME280;20748;42.632;23.198;2022-07-19T05:03:31;92767.72;;;14.90;87.49
34506;BME280;20748;42.632;23.198;2022-07-19T05:06:04;92765.13;;;14.99;86.64
34506;BME280;20748;42.632;23.198;2022-07-19T05:08:36;92776.53;;;15.03;87.79
34506;BME280;20748;42.632;23.198;2022-07-19T05:11:09;92766.03;;;15.12;87.27
34506;BME280;20748;42.632;23.198;2022-07-19T05:13:42;92772.53;;;15.15;86.80
34506;BME280;20748;42.632;23.198;2022-07-19T05:16:14;92772.88;;;15.22;87.52
34506;BME280;20748;42.632;23.198;2022-07-19T05:18:47;92768.69;;;15.39;86.28
34506;BME280;20748;42.632;23.198;2022-07-19T05:21:19;92772.72;;;15.54;86.18
34506;BME280;20748;42.632;23.198;2022-07-19T05:23:52;92772.56;;;15.77;85.57
34506;BME280;20748;42.632;23.198;2022-07-19T05:26:25;92766.84;;;15.92;85.43
34506;BME280;20748;42.632;23.198;2022-07-19T05:28:57;92771.63;;;16.08;84.19
34506;BME280;20748;42.632;23.198;2022-07-19T05:31:30;92770.03;;;16.24;83.70
34506;BME280;20748;42.632;23.198;2022-07-19T05:34:02;92773.56;;;16.37;82.67
34506;BME280;20748;42.632;23.198;2022-07-19T05:36:35;92771.16;;;16.54;82.11
34506;BME280;20748;42.632;23.198;2022-07-19T05:39:07;92770.47;;;16.74;81.25
34506;BME280;20748;42.632;23.198;2022-07-19T05:41:40;92769.75;;;16.95;80.20
34506;BME280;20748;42.632;23.198;2022-07-19T05:44:14;92770.06;;;17.02;79.36
34506;BME280;20748;42.632;23.198;2022-07-19T05:46:46;92772.59;;;17.20;79.67
34506;BME280;20748;42.632;23.198;2022-07-19T05:49:19;92772.78;;;17.36;79.59
34506;BME280;20748;42.632;23.198;2022-07-19T05:51:51;92775.50;;;17.49;78.03
34506;BME280;20748;42.632;23.198;2022-07-19T05:54:24;92769.31;;;17.66;77.12
34506;BME280;20748;42.632;23.198;2022-07-19T05:56:57;92771.19;;;17.65;77.02
34506;BME280;20748;42.632;23.198;2022-07-19T05:59:29;92767.72;;;17.86;76.85
34506;BME280;20748;42.632;23.198;2022-07-19T06:02:02;92764.63;;;18.05;77.30
34506;BME280;20748;42.632;23.198;2022-07-19T06:04:34;92758.84;;;18.12;76.72
34506;BME280;20748;42.632;23.198;2022-07-19T06:07:07;92762.72;;;18.27;77.13
34506;BME280;20748;42.632;23.198;2022-07-19T06:09:39;92760.63;;;18.33;76.23
34506;BME280;20748;42.632;23.198;2022-07-19T06:12:12;92762.09;;;18.55;75.60
34506;BME280;20748;42.632;23.198;2022-07-19T06:14:45;92763.97;;;18.67;74.97
34506;BME280;20748;42.632;23.198;2022-07-19T06:17:17;92757.25;;;18.82;74.64
34506;BME280;20748;42.632;23.198;2022-07-19T06:19:50;92765.97;;;19.08;73.32
34506;BME280;20748;42.632;23.198;2022-07-19T06:22:22;92755.84;;;19.10;72.36
34506;BME280;20748;42.632;23.198;2022-07-19T06:24:55;92756.72;;;19.14;72.57
34506;BME280;20748;42.632;23.198;2022-07-19T06:27:28;92759.34;;;19.26;72.09
34506;BME280;20748;42.632;23.198;2022-07-19T06:30:00;92767.44;;;19.46;71.29
34506;BME280;20748;42.632;23.198;2022-07-19T06:32:34;92752.53;;;19.54;70.46
34506;BME280;20748;42.632;23.198;2022-07-19T06:35:07;92753.94;;;19.64;70.88
34506;BME280;20748;42.632;23.198;2022-07-19T06:37:40;92759.78;;;19.69;69.96
34506;BME280;20748;42.632;23.198;2022-07-19T06:40:13;92744.59;;;19.82;70.09
34506;BME280;20748;42.632;23.198;2022-07-19T06:42:46;92751.53;;;19.99;68.87
34506;BME280;20748;42.632;23.198;2022-07-19T06:45:18;92752.28;;;20.00;68.48
34506;BME280;20748;42.632;23.198;2022-07-19T06:47:51;92750.44;;;20.17;67.91
34506;BME280;20748;42.632;23.198;2022-07-19T06:50:23;92750.72;;;20.44;68.25
34506;BME280;20748;42.632;23.198;2022-07-19T06:53:13;92759.53;;;20.48;66.53
34506;BME280;20748;42.632;23.198;2022-07-19T06:55:46;92757.22;;;20.62;64.75
34506;BME280;20748;42.632;23.198;2022-07-19T06:58:19;92765.09;;;20.75;63.38
34506;BME280;20748;42.632;23.198;2022-07-19T07:00:51;92752.84;;;21.02;63.09
34506;BME280;20748;42.632;23.198;2022-07-19T07:03:24;92745.91;;;21.14;63.51
34506;BME280;20748;42.632;23.198;2022-07-19T07:05:57;92754.84;;;21.25;61.00
34506;BME280;20748;42.632;23.198;2022-07-19T07:08:29;92757.09;;;21.23;61.46
34506;BME280;20748;42.632;23.198;2022-07-19T07:11:02;92755.59;;;21.42;61.14
34506;BME280;20748;42.632;23.198;2022-07-19T07:13:35;92754.56;;;21.66;59.86
34506;BME280;20748;42.632;23.198;2022-07-19T07:16:08;92759.47;;;21.84;59.20
34506;BME280;20748;42.632;23.198;2022-07-19T07:18:41;92752.75;;;21.90;58.00
34506;BME280;20748;42.632;23.198;2022-07-19T07:21:13;92752.91;;;21.97;58.97
34506;BME280;20748;42.632;23.198;2022-07-19T07:23:46;92755.50;;;22.17;58.72
34506;BME280;20748;42.632;23.198;2022-07-19T07:26:18;92754.09;;;22.23;56.58
34506;BME280;20748;42.632;23.198;2022-07-19T07:28:52;92762.97;;;22.31;56.27
34506;BME280;20748;42.632;23.198;2022-07-19T07:31:25;92756.97;;;22.15;56.26
34506;BME280;20748;42.632;23.198;2022-07-19T07:33:57;92762.06;;;22.23;54.14
34506;BME280;20748;42.632;23.198;2022-07-19T07:36:30;92754.94;;;22.51;55.04
34506;BME280;20748;42.632;23.198;2022-07-19T07:39:02;92751.47;;;22.70;53.49
34506;BME280;20748;42.632;23.198;2022-07-19T07:41:35;92754.06;;;22.90;53.01
34506;BME280;20748;42.632;23.198;2022-07-19T07:44:28;92753.53;;;23.31;51.35
34506;BME280;20748;42.632;23.198;2022-07-19T07:47:00;92747.34;;;23.54;50.55
34506;BME280;20748;42.632;23.198;2022-07-19T07:49:32;92753.09;;;23.29;45.90
34506;BME280;20748;42.632;23.198;2022-07-19T07:52:05;92747.72;;;23.52;49.21
34506;BME280;20748;42.632;23.198;2022-07-19T07:54:38;92740.25;;;23.65;47.51
34506;BME280;20748;42.632;23.198;2022-07-19T07:57:31;92742.34;;;23.79;45.57
34506;BME280;20748;42.632;23.198;2022-07-19T08:00:06;92747.09;;;23.97;45.04
34506;BME280;20748;42.632;23.198;2022-07-19T08:02:44;92744.78;;;23.95;42.06
34506;BME280;20748;42.632;23.198;2022-07-19T08:05:19;92744.25;;;23.82;41.41
34506;BME280;20748;42.632;23.198;2022-07-19T08:07:53;92742.00;;;23.84;42.16
34506;BME280;20748;42.632;23.198;2022-07-19T08:10:28;92754.19;;;23.85;41.11
34506;BME280;20748;42.632;23.198;2022-07-19T08:13:03;92741.84;;;24.04;40.52
34506;BME280;20748;42.632;23.198;2022-07-19T08:15:40;92745.16;;;24.32;41.17
34506;BME280;20748;42.632;23.198;2022-07-19T08:18:13;92753.56;;;24.34;42.05
34506;BME280;20748;42.632;23.198;2022-07-19T08:20:45;92744.81;;;24.33;39.12
34506;BME280;20748;42.632;23.198;2022-07-19T08:23:18;92749.91;;;24.49;40.24
34506;BME280;20748;42.632;23.198;2022-07-19T08:25:50;92738.44;;;24.45;39.14
34506;BME280;20748;42.632;23.198;2022-07-19T08:28:22;92746.91;;;24.54;40.75
34506;BME280;20748;42.632;23.198;2022-07-19T08:30:56;92741.88;;;24.46;40.07
34506;BME280;20748;42.632;23.198;2022-07-19T08:33:44;92745.44;;;24.64;39.83
34506;BME280;20748;42.632;23.198;2022-07-19T08:36:17;92740.56;;;24.70;39.97
34506;BME280;20748;42.632;23.198;2022-07-19T08:38:49;92732.81;;;24.58;40.37
34506;BME280;20748;42.632;23.198;2022-07-19T08:41:22;92736.31;;;24.65;40.10
34506;BME280;20748;42.632;23.198;2022-07-19T08:43:54;92737.66;;;24.90;40.58
34506;BME280;20748;42.632;23.198;2022-07-19T08:46:28;92748.44;;;25.04;39.33
34506;BME280;20748;42.632;23.198;2022-07-19T08:49:01;92736.50;;;25.51;39.67
34506;BME280;20748;42.632;23.198;2022-07-19T08:51:35;92738.47;;;25.61;38.87
34506;BME280;20748;42.632;23.198;2022-07-19T08:54:08;92732.41;;;25.71;40.86
34506;BME280;20748;42.632;23.198;2022-07-19T08:56:40;92724.34;;;25.57;38.80
34506;BME280;20748;42.632;23.198;2022-07-19T08:59:31;92727.69;;;25.43;39.71
34506;BME280;20748;42.632;23.198;2022-07-19T09:02:05;92737.97;;;25.41;39.35
34506;BME280;20748;42.632;23.198;2022-07-19T09:04:37;92735.75;;;25.54;39.56
34506;BME280;20748;42.632;23.198;2022-07-19T09:07:10;92735.03;;;25.57;37.87
34506;BME280;20748;42.632;23.198;2022-07-19T09:09:42;92737.22;;;25.44;38.02
34506;BME280;20748;42.632;23.198;2022-07-19T09:12:14;92736.22;;;25.67;37.65
34506;BME280;20748;42.632;23.198;2022-07-19T09:14:53;92734.69;;;25.66;39.24
34506;BME280;20748;42.632;23.198;2022-07-19T09:17:28;92745.88;;;26.00;39.25
34506;BME280;20748;42.632;23.198;2022-07-19T09:20:01;92740.63;;;26.40;36.89
34506;BME280;20748;42.632;23.198;2022-07-19T09:22:34;92740.66;;;26.62;36.24
34506;BME280;20748;42.632;23.198;2022-07-19T09:25:07;92739.13;;;26.83;35.54
34506;BME280;20748;42.632;23.198;2022-07-19T09:27:56;92737.56;;;27.11;35.28
34506;BME280;20748;42.632;23.198;2022-07-19T09:30:34;92733.34;;;27.21;34.93
34506;BME280;20748;42.632;23.198;2022-07-19T09:33:19;92739.75;;;27.74;34.62
34506;BME280;20748;42.632;23.198;2022-07-19T09:35:52;92740.06;;;27.91;32.68
34506;BME280;20748;42.632;23.198;2022-07-19T09:38:27;92734.94;;;28.19;32.24
34506;BME280;20748;42.632;23.198;2022-07-19T09:41:11;92730.47;;;27.94;33.02
34506;BME280;20748;42.632;23.198;2022-07-19T09:43:53;92736.88;;;28.11;32.25
34506;BME280;20748;42.632;23.198;2022-07-19T09:46:30;92742.19;;;28.18;32.83
34506;BME280;20748;42.632;23.198;2022-07-19T09:49:05;92735.59;;;28.37;32.76
34506;BME280;20748;42.632;23.198;2022-07-19T09:51:41;92726.50;;;28.20;34.61
34506;BME280;20748;42.632;23.198;2022-07-19T09:54:15;92730.19;;;28.45;31.68
34506;BME280;20748;42.632;23.198;2022-07-19T09:56:49;92721.59;;;28.68;31.94
34506;BME280;20748;42.632;23.198;2022-07-19T09:59:23;92730.00;;;28.70;31.81
34506;BME280;20748;42.632;23.198;2022-07-19T10:01:56;92732.22;;;28.83;32.64
34506;BME280;20748;42.632;23.198;2022-07-19T10:04:32;92726.13;;;28.78;30.98
34506;BME280;20748;42.632;23.198;2022-07-19T10:07:05;92725.44;;;28.67;30.54
34506;BME280;20748;42.632;23.198;2022-07-19T10:09:37;92721.88;;;28.81;30.70
34506;BME280;20748;42.632;23.198;2022-07-19T10:12:10;92726.13;;;28.75;30.37
34506;BME280;20748;42.632;23.198;2022-07-19T10:14:43;92722.41;;;28.61;30.25
34506;BME280;20748;42.632;23.198;2022-07-19T10:17:23;92718.63;;;28.55;29.06
34506;BME280;20748;42.632;23.198;2022-07-19T10:20:03;92713.75;;;28.92;30.45
34506;BME280;20748;42.632;23.198;2022-07-19T10:22:38;92721.28;;;28.59;30.49
34506;BME280;20748;42.632;23.198;2022-07-19T10:25:13;92724.53;;;28.35;31.24
34506;BME280;20748;42.632;23.198;2022-07-19T10:27:48;92716.16;;;28.19;31.45
34506;BME280;20748;42.632;23.198;2022-07-19T10:30:24;92723.47;;;28.71;31.62
34506;BME280;20748;42.632;23.198;2022-07-19T10:32:57;92707.34;;;28.78;29.64
34506;BME280;20748;42.632;23.198;2022-07-19T10:35:30;92708.28;;;29.03;31.53
34506;BME280;20748;42.632;23.198;2022-07-19T10:38:09;92706.75;;;29.02;31.85
34506;BME280;20748;42.632;23.198;2022-07-19T10:40:44;92702.13;;;29.06;30.86
34506;BME280;20748;42.632;23.198;2022-07-19T10:43:17;92713.03;;;28.84;29.83
34506;BME280;20748;42.632;23.198;2022-07-19T10:46:08;92709.91;;;28.93;30.60
34506;BME280;20748;42.632;23.198;2022-07-19T10:48:42;92709.50;;;28.94;31.19
34506;BME280;20748;42.632;23.198;2022-07-19T10:51:28;92701.63;;;29.18;30.09
34506;BME280;20748;42.632;23.198;2022-07-19T10:54:03;92703.22;;;29.12;30.64
34506;BME280;20748;42.632;23.198;2022-07-19T10:56:42;92694.31;;;29.19;30.06
34506;BME280;20748;42.632;23.198;2022-07-19T10:59:32;92688.06;;;29.29;28.91
34506;BME280;20748;42.632;23.198;2022-07-19T11:02:04;92694.25;;;29.61;29.25
34506;BME280;20748;42.632;23.198;2022-07-19T11:04:57;92683.84;;;29.67;28.78
34506;BME280;20748;42.632;23.198;2022-07-19T11:07:30;92680.59;;;29.79;28.64
34506;BME280;20748;42.632;23.198;2022-07-19T11:10:03;92673.03;;;29.70;29.67
34506;BME280;20748;42.632;23.198;2022-07-19T11:12:36;92686.34;;;29.46;31.31
34506;BME280;20748;42.632;23.198;2022-07-19T11:15:09;92679.84;;;29.44;31.60
34506;BME280;20748;42.632;23.198;2022-07-19T11:17:53;92680.28;;;29.39;31.18
34506;BME280;20748;42.632;23.198;2022-07-19T11:20:27;92672.91;;;29.50;30.86
34506;BME280;20748;42.632;23.198;2022-07-19T11:23:02;92667.78;;;29.25;29.57
34506;BME280;20748;42.632;23.198;2022-07-19T11:25:37;92678.66;;;28.68;30.78
34506;BME280;20748;42.632;23.198;2022-07-19T11:28:19;92679.69;;;28.81;30.40
34506;BME280;20748;42.632;23.198;2022-07-19T11:30:52;92674.38;;;28.74;29.97
34506;BME280;20748;42.632;23.198;2022-07-19T11:33:25;92675.91;;;28.75;29.76
34506;BME280;20748;42.632;23.198;2022-07-19T11:35:59;92676.63;;;29.21;30.05
34506;BME280;20748;42.632;23.198;2022-07-19T11:38:37;92671.28;;;29.56;29.43
34506;BME280;20748;42.632;23.198;2022-07-19T11:41:14;92679.78;;;29.51;30.14
34506;BME280;20748;42.632;23.198;2022-07-19T11:43:51;92675.53;;;29.85;28.91
34506;BME280;20748;42.632;23.198;2022-07-19T11:46:26;92665.28;;;30.04;29.78
34506;BME280;20748;42.632;23.198;2022-07-19T11:49:01;92668.91;;;29.90;30.87
34506;BME280;20748;42.632;23.198;2022-07-19T11:51:35;92677.78;;;30.18;28.10
34506;BME280;20748;42.632;23.198;2022-07-19T11:54:08;92668.56;;;30.19;27.89
34506;BME280;20748;42.632;23.198;2022-07-19T11:56:43;92661.91;;;30.27;28.45
34506;BME280;20748;42.632;23.198;2022-07-19T11:59:16;92655.09;;;30.19;29.58
34506;BME280;20748;42.632;23.198;2022-07-19T12:01:55;92658.84;;;30.25;29.15
34506;BME280;20748;42.632;23.198;2022-07-19T12:04:36;92671.78;;;30.06;29.68
34506;BME280;20748;42.632;23.198;2022-07-19T12:07:09;92667.78;;;29.25;29.74
34506;BME280;20748;42.632;23.198;2022-07-19T12:09:42;92666.00;;;29.11;30.71
34506;BME280;20748;42.632;23.198;2022-07-19T12:12:16;92661.03;;;29.09;30.17
34506;BME280;20748;42.632;23.198;2022-07-19T12:14:49;92656.41;;;29.10;30.04
34506;BME280;20748;42.632;23.198;2022-07-19T12:17:22;92645.78;;;29.33;31.32
34506;BME280;20748;42.632;23.198;2022-07-19T12:20:08;92648.44;;;29.02;30.56
34506;BME280;20748;42.632;23.198;2022-07-19T12:23:11;92647.75;;;28.94;30.00
34506;BME280;20748;42.632;23.198;2022-07-19T12:25:45;92645.69;;;29.10;30.61
34506;BME280;20748;42.632;23.198;2022-07-19T12:28:25;92644.78;;;28.81;31.20
34506;BME280;20748;42.632;23.198;2022-07-19T12:31:02;92648.63;;;28.80;30.72
34506;BME280;20748;42.632;23.198;2022-07-19T12:33:34;92647.97;;;29.11;30.76
34506;BME280;20748;42.632;23.198;2022-07-19T12:36:09;92638.69;;;29.51;29.52
34506;BME280;20748;42.632;23.198;2022-07-19T12:38:41;92638.38;;;29.45;28.65
34506;BME280;20748;42.632;23.198;2022-07-19T12:41:15;92629.19;;;29.42;29.34
34506;BME280;20748;42.632;23.198;2022-07-19T12:43:47;92627.50;;;29.56;28.86
34506;BME280;20748;42.632;23.198;2022-07-19T12:46:20;92634.97;;;29.72;29.63
34506;BME280;20748;42.632;23.198;2022-07-19T12:48:52;92627.72;;;29.69;29.92
34506;BME280;20748;42.632;23.198;2022-07-19T12:51:25;92619.34;;;29.63;30.16
34506;BME280;20748;42.632;23.198;2022-07-19T12:53:57;92624.03;;;29.59;29.06
34506;BME280;20748;42.632;23.198;2022-07-19T12:56:30;92626.94;;;29.37;29.83
34506;BME280;20748;42.632;23.198;2022-07-19T12:59:03;92630.25;;;29.17;28.87
34506;BME280;20748;42.632;23.198;2022-07-19T13:01:54;92627.53;;;28.79;29.22
34506;BME280;20748;42.632;23.198;2022-07-19T13:04:27;92619.31;;;28.55;29.18
34506;BME280;20748;42.632;23.198;2022-07-19T13:06:59;92621.97;;;28.59;32.12
34506;BME280;20748;42.632;23.198;2022-07-19T13:09:32;92617.47;;;28.48;32.78
34506;BME280;20748;42.632;23.198;2022-07-19T13:12:06;92619.94;;;28.28;31.69
34506;BME280;20748;42.632;23.198;2022-07-19T13:14:39;92614.63;;;28.17;32.91
34506;BME280;20748;42.632;23.198;2022-07-19T13:17:12;92610.63;;;27.87;30.11
34506;BME280;20748;42.632;23.198;2022-07-19T13:19:44;92609.63;;;27.59;31.87
34506;BME280;20748;42.632;23.198;2022-07-19T13:22:17;92613.00;;;27.74;32.07
34506;BME280;20748;42.632;23.198;2022-07-19T13:24:50;92611.56;;;27.58;31.91
34506;BME280;20748;42.632;23.198;2022-07-19T13:27:43;92609.38;;;27.24;33.06